Time;durP1;ratioP1;P1;durP2;ratioP2;P2;SDS_P1;SDS_P2;PMS_P1;PMS_P2;Temp;Humidity;BMP_temperature;BMP_pressure;BME280_temperature;BME280_humidity;BME280_pressure;Samples;Min_cycle;Max_cycle;Signal;HPM_P1;HPM_P2
2023/04/21 00:01:57;;;;;;;2.42;1.17;;;;;;;10.27;85.57;101368.16;5090200;28;20039;-53
2023/04/21 00:04:23;;;;;;;2.78;1.08;;;;;;;10.23;85.66;101375.34;5080440;28;20576;-54
2023/04/21 00:06:49;;;;;;;3.38;1.77;;;;;;;10.21;85.96;101371.41;5087905;28;20073;-53
2023/04/21 00:09:15;;;;;;;1.08;0.98;;;;;;;10.28;85.58;101366.28;5091472;28;20480;-48
2023/04/21 00:11:41;;;;;;;1.85;1.45;;;;;;;10.14;86.70;101366.59;5093675;28;20106;-49
2023/04/21 00:14:09;;;;;;;1.88;1.10;;;;;;;10.17;86.78;101365.91;5092435;28;20146;-51
2023/04/21 00:16:34;;;;;;;2.45;1.27;;;;;;;10.14;86.69;101371.19;5095863;28;20035;-52
2023/04/21 00:19:01;;;;;;;3.00;1.55;;;;;;;10.11;86.27;101369.13;5096106;28;20056;-53
2023/04/21 00:21:27;;;;;;;1.80;1.27;;;;;;;10.14;86.30;101363.09;5094080;28;20380;-51
2023/04/21 00:23:52;;;;;;;4.47;1.50;;;;;;;10.01;86.87;101359.56;5090866;28;20067;-49
2023/04/21 00:26:19;;;;;;;1.42;1.17;;;;;;;10.04;86.82;101358.91;5086875;28;20639;-52
2023/04/21 00:28:47;;;;;;;2.80;1.73;;;;;;;9.95;86.92;101363.56;5088952;28;20039;-48
2023/04/21 00:31:12;;;;;;;3.10;1.77;;;;;;;9.91;87.74;101360.00;5089886;28;20033;-50
2023/04/21 00:33:38;;;;;;;2.33;1.58;;;;;;;9.96;87.25;101368.66;5088234;28;20427;-51
2023/04/21 00:36:03;;;;;;;2.03;1.10;;;;;;;10.05;87.01;101365.84;5092924;28;20058;-50
2023/04/21 00:38:29;;;;;;;1.88;1.15;;;;;;;10.10;86.41;101357.59;5084541;28;20060;-50
2023/04/21 00:40:54;;;;;;;1.10;1.10;;;;;;;10.06;86.67;101362.06;5087473;28;20043;-51
2023/04/21 00:43:20;;;;;;;2.45;1.65;;;;;;;10.12;86.51;101358.06;5087516;28;20036;-50
2023/04/21 00:45:46;;;;;;;2.50;2.17;;;;;;;9.89;87.12;101359.53;5085428;28;20027;-48
2023/04/21 00:48:11;;;;;;;1.70;0.90;;;;;;;9.86;87.96;101354.81;5088367;28;20035;-48
2023/04/21 00:50:37;;;;;;;1.13;1.02;;;;;;;9.93;87.70;101361.22;5082801;28;20502;-49
2023/04/21 00:53:05;;;;;;;1.20;1.10;;;;;;;10.01;87.44;101356.88;5091910;28;20044;-54
2023/04/21 00:55:31;;;;;;;4.28;1.80;;;;;;;10.10;86.34;101346.84;5086819;28;20567;-48
2023/04/21 00:58:16;;;;;;;3.05;1.58;;;;;;;10.10;86.48;101354.13;5086525;28;20081;-48
2023/04/21 01:00:43;;;;;;;1.17;1.13;;;;;;;9.91;86.99;101358.06;5027568;28;20045;-50
2023/04/21 01:03:08;;;;;;;2.08;1.10;;;;;;;9.91;87.02;101358.06;5000555;28;20539;-48
2023/04/21 01:05:35;;;;;;;1.48;1.38;;;;;;;9.91;87.10;101344.63;5022217;28;20049;-49
2023/04/21 01:08:01;;;;;;;1.08;0.90;;;;;;;9.94;86.96;101353.94;5024117;28;20562;-48
2023/04/21 01:10:26;;;;;;;9.90;2.08;;;;;;;10.02;86.69;101351.19;5025511;28;20041;-50
2023/04/21 01:12:52;;;;;;;3.20;2.13;;;;;;;9.98;86.85;101349.47;5004470;28;20037;-53
2023/04/21 01:15:20;;;;;;;3.17;1.27;;;;;;;9.92;86.96;101356.97;5028659;28;20127;-48
2023/04/21 01:17:45;;;;;;;1.75;1.00;;;;;;;9.86;87.50;101346.75;5019585;28;20060;-48
2023/04/21 01:20:13;;;;;;;1.95;1.23;;;;;;;9.91;87.42;101341.16;5025702;28;20501;-54
2023/04/21 01:22:41;;;;;;;1.70;1.10;;;;;;;9.85;87.73;101340.56;5004953;28;20515;-49
2023/04/21 01:25:07;;;;;;;2.15;1.10;;;;;;;9.94;86.91;101343.19;5019769;28;20059;-53
2023/04/21 01:27:34;;;;;;;2.65;1.05;;;;;;;9.84;87.67;101335.53;5009603;28;20087;-50
2023/04/21 01:30:02;;;;;;;1.80;1.55;;;;;;;9.78;87.88;101345.72;5008958;28;20468;-53
2023/04/21 01:32:28;;;;;;;1.58;1.10;;;;;;;9.78;87.95;101340.34;5021408;28;20044;-50
2023/04/21 01:34:55;;;;;;;1.00;0.77;;;;;;;9.88;87.81;101336.44;5025253;28;20128;-54
2023/04/21 01:37:25;;;;;;;3.28;1.65;;;;;;;9.68;88.19;101338.06;5047635;28;20437;-50
2023/04/21 01:39:53;;;;;;;1.30;1.00;;;;;;;9.79;88.41;101338.44;5084643;28;20051;-57
2023/04/21 01:42:25;;;;;;;3.40;1.58;;;;;;;9.79;87.90;101331.13;5085954;28;20024;-50
2023/04/21 01:44:52;;;;;;;;;;;;;;;9.76;88.01;101339.09;5089664;28;20036;-51
2023/04/21 01:47:18;;;;;;;2.22;1.08;;;;;;;9.72;88.01;101330.09;5088243;28;19951;-51
2023/04/21 01:49:44;;;;;;;2.00;1.10;;;;;;;9.63;88.53;101335.59;5089132;28;20024;-52
2023/04/21 01:52:11;;;;;;;2.83;1.42;;;;;;;9.61;88.55;101327.06;5089837;28;20063;-52
2023/04/21 01:54:37;;;;;;;2.50;1.55;;;;;;;9.59;88.85;101337.38;5107109;28;20517;-49
2023/04/21 01:57:02;;;;;;;3.03;1.80;;;;;;;9.64;88.59;101329.09;5085953;28;20020;-50
2023/04/21 01:59:28;;;;;;;2.22;1.27;;;;;;;9.68;88.42;101321.94;5088953;28;20024;-52
2023/04/21 02:04:21;;;;;;;1.00;0.90;;;;;;;9.69;88.30;101325.41;5045241;28;20095;-62
2023/04/21 02:06:46;;;;;;;2.00;1.67;;;;;;;9.58;88.74;101318.88;5046731;28;20037;-61
2023/04/21 02:09:12;;;;;;;0.90;0.75;;;;;;;9.45;88.96;101322.63;5035690;28;20039;-61
2023/04/21 02:11:37;;;;;;;1.42;1.25;;;;;;;9.52;89.53;101323.69;5026848;28;20021;-62
2023/04/21 02:14:03;;;;;;;1.48;1.20;;;;;;;9.64;88.90;101317.56;5048353;28;20116;-62
2023/04/21 02:16:29;;;;;;;0.75;0.70;;;;;;;9.64;88.47;101320.25;5031300;28;20483;-63
2023/04/21 02:18:56;;;;;;;1.95;1.15;;;;;;;9.67;88.40;101315.00;5047919;28;20071;-62
2023/04/21 02:21:22;;;;;;;0.93;0.90;;;;;;;9.73;87.92;101312.88;5043303;28;20044;-61
2023/04/21 02:23:48;;;;;;;1.45;1.33;;;;;;;9.63;88.61;101314.09;5047545;28;20037;-62
2023/04/21 02:26:14;;;;;;;1.92;1.17;;;;;;;9.61;88.54;101316.31;5043975;28;21192;-62
2023/04/21 02:28:40;;;;;;;4.82;1.42;;;;;;;9.61;88.98;101310.16;5048523;28;20064;-61
2023/04/21 02:31:06;;;;;;;3.22;1.40;;;;;;;9.65;88.81;101303.00;5024669;28;20032;-62
2023/04/21 02:33:33;;;;;;;2.65;1.40;;;;;;;9.73;88.35;101304.81;5048292;28;20044;-62
2023/04/21 02:35:58;;;;;;;1.92;1.40;;;;;;;9.70;88.31;101305.44;5049121;28;20032;-62
2023/04/21 02:38:24;;;;;;;1.35;1.10;;;;;;;9.61;88.20;101310.16;5028663;28;20029;-61
2023/04/21 02:40:49;;;;;;;2.40;1.33;;;;;;;9.53;88.52;101311.00;5040013;28;20047;-61
2023/04/21 02:43:17;;;;;;;1.20;1.10;;;;;;;9.47;89.10;101312.31;5048393;28;20072;-60
2023/04/21 02:45:42;;;;;;;5.95;1.63;;;;;;;9.45;89.40;101298.44;5030449;28;20134;-59
2023/04/21 02:48:08;;;;;;;1.90;0.95;;;;;;;9.54;88.62;101305.28;5029608;28;20040;-61
2023/04/21 02:50:35;;;;;;;0.70;0.70;;;;;;;9.66;88.25;101301.84;5047789;28;20403;-61
2023/04/21 02:53:00;;;;;;;0.98;0.98;;;;;;;9.65;88.61;101308.38;5043557;28;20052;-61
2023/04/21 02:55:26;;;;;;;9.20;1.90;;;;;;;9.64;88.25;101307.56;5028890;28;20033;-62
2023/04/21 02:57:51;;;;;;;1.35;1.25;;;;;;;9.67;88.57;101300.75;5047155;28;20104;-61
2023/04/21 03:00:17;;;;;;;18.73;2.30;;;;;;;9.60;88.42;101305.91;5024992;28;20025;-61
2023/04/21 03:02:43;;;;;;;1.70;0.85;;;;;;;9.56;88.74;101304.97;5021949;28;20041;-61
2023/04/21 03:05:11;;;;;;;1.90;1.20;;;;;;;9.52;88.93;101290.63;5032999;28;20124;-62
2023/04/21 03:07:37;;;;;;;2.03;1.48;;;;;;;9.50;89.10;101300.94;5047378;28;20025;-61
2023/04/21 03:10:05;;;;;;;2.10;1.15;;;;;;;9.53;88.80;101302.94;5047569;28;20080;-62
2023/04/21 03:12:31;;;;;;;2.72;1.25;;;;;;;9.56;88.40;101304.97;5025976;28;20055;-61
2023/04/21 03:14:56;;;;;;;2.03;1.00;;;;;;;9.48;88.36;101300.47;5041097;28;20489;-62
2023/04/21 03:17:25;;;;;;;1.50;0.73;;;;;;;9.45;88.84;101298.44;5028750;28;20502;-61
2023/04/21 03:19:50;;;;;;;1.05;0.82;;;;;;;9.37;89.05;101297.41;5025780;28;20028;-61
2023/04/21 03:22:16;;;;;;;2.33;1.15;;;;;;;9.38;89.70;101298.19;5046320;28;20049;-62
2023/04/21 03:24:41;;;;;;;4.10;1.75;;;;;;;9.39;88.97;101299.78;5026782;28;20033;-61
2023/04/21 03:27:06;;;;;;;1.33;1.00;;;;;;;9.33;89.54;101295.72;5025297;28;20040;-60
2023/04/21 03:29:32;;;;;;;0.88;0.68;;;;;;;9.43;88.85;101290.69;5028755;28;20116;-62
2023/04/21 03:31:58;;;;;;;3.40;1.70;;;;;;;9.40;89.04;101294.06;5030190;28;20021;-61
2023/04/21 03:34:24;;;;;;;2.05;1.20;;;;;;;9.43;88.98;101289.91;5025516;28;20029;-61
2023/04/21 03:36:49;;;;;;;1.23;1.13;;;;;;;9.51;88.73;101283.66;5022852;28;20455;-59
2023/04/21 03:39:15;;;;;;;0.80;0.80;;;;;;;9.44;88.93;101291.50;5039457;28;20037;-61
2023/04/21 03:41:42;;;;;;;1.42;1.13;;;;;;;9.44;88.60;101291.50;5026614;28;20040;-60
2023/04/21 03:44:08;;;;;;;4.80;1.27;;;;;;;9.46;88.84;101291.94;5027813;28;20037;-61
2023/04/21 03:46:33;;;;;;;2.42;1.35;;;;;;;9.43;88.59;101297.97;5043376;28;20040;-62
2023/04/21 03:48:59;;;;;;;3.25;1.50;;;;;;;9.44;88.45;101291.50;5028243;28;20032;-60
2023/04/21 03:51:25;;;;;;;3.08;1.73;;;;;;;9.38;88.44;101295.50;5027261;28;20037;-62
2023/04/21 03:53:51;;;;;;;3.92;1.25;;;;;;;9.43;88.65;101298.75;5045596;28;20036;-62
2023/04/21 03:56:16;;;;;;;2.10;1.23;;;;;;;9.38;88.39;101295.50;5048484;28;20104;-60
2023/04/21 03:58:42;;;;;;;1.50;1.20;;;;;;;9.42;88.17;101293.72;5054892;28;20048;-59
2023/04/21 04:01:07;;;;;;;1.42;1.13;;;;;;;9.29;88.61;101292.13;5026378;28;20127;-61
2023/04/21 04:03:33;;;;;;;2.08;1.30;;;;;;;9.34;89.16;101291.91;5024124;28;20055;-61
2023/04/21 04:05:58;;;;;;;2.53;1.58;;;;;;;9.30;88.93;101285.59;5037962;28;20033;-61
2023/04/21 04:08:24;;;;;;;2.63;1.20;;;;;;;9.38;88.90;101284.75;5026286;28;20048;-61
2023/04/21 04:10:50;;;;;;;2.05;1.88;;;;;;;9.26;88.82;101279.31;5044565;28;20352;-61
2023/04/21 04:13:15;;;;;;;1.85;1.40;;;;;;;9.23;89.33;101280.78;5030678;28;20045;-61
2023/04/21 04:15:41;;;;;;;5.50;1.48;;;;;;;9.26;89.13;101279.31;5048267;28;20399;-58
2023/04/21 04:18:06;;;;;;;1.40;1.10;;;;;;;9.25;89.13;101277.75;5052048;28;20032;-59
2023/04/21 04:20:32;;;;;;;1.45;1.27;;;;;;;9.24;89.55;101284.25;5050323;28;20028;-61
2023/04/21 04:22:57;;;;;;;1.05;0.95;;;;;;;9.27;89.35;101288.97;5050384;28;20048;-59
2023/04/21 04:25:23;;;;;;;1.95;1.15;;;;;;;9.31;89.14;101287.97;5052065;28;20033;-59
2023/04/21 04:27:49;;;;;;;1.85;1.02;;;;;;;9.36;89.11;101285.09;5042655;28;20060;-59
2023/04/21 04:30:15;;;;;;;0.90;0.88;;;;;;;9.32;88.79;101278.00;5049643;28;20098;-59
2023/04/21 04:32:41;;;;;;;1.38;0.90;;;;;;;9.26;89.63;101279.31;5046594;28;20035;-59
2023/04/21 04:35:08;;;;;;;2.42;1.60;;;;;;;9.36;89.26;101279.72;5032856;28;20221;-60
2023/04/21 04:37:36;;;;;;;1.48;1.38;;;;;;;9.38;88.64;101277.47;5051206;28;20395;-59
2023/04/21 04:40:05;;;;;;;3.78;1.25;;;;;;;9.38;88.40;101284.75;5049895;28;20021;-58
2023/04/21 04:42:32;;;;;;;1.08;1.08;;;;;;;9.34;89.25;101283.84;5044985;28;20403;-60
2023/04/21 04:45:00;;;;;;;3.20;2.03;;;;;;;9.38;89.24;101301.66;5047021;28;20032;-59
2023/04/21 04:47:26;;;;;;;2.45;1.20;;;;;;;9.29;88.90;101281.38;5045113;28;20051;-59
2023/04/21 04:49:51;;;;;;;1.45;1.13;;;;;;;9.41;88.60;101284.06;5041597;28;20558;-58
2023/04/21 04:52:16;;;;;;;1.20;1.05;;;;;;;9.38;88.71;101287.44;5043320;28;20033;-59
2023/04/21 04:54:42;;;;;;;5.28;1.17;;;;;;;9.36;88.92;101287.78;5044965;28;20162;-58
2023/04/21 04:57:07;;;;;;;2.22;1.05;;;;;;;9.47;88.97;101285.44;5049806;28;20037;-59
2023/04/21 04:59:35;;;;;;;1.52;1.20;;;;;;;9.47;88.60;101290.81;5029155;28;20022;-59
2023/04/21 05:02:02;;;;;;;2.83;1.73;;;;;;;9.48;88.68;101293.19;5045417;28;20064;-58
2023/04/21 05:04:27;;;;;;;4.05;1.40;;;;;;;9.49;88.71;101293.97;5049490;28;20033;-59
2023/04/21 05:06:53;;;;;;;1.77;1.42;;;;;;;9.52;88.55;101290.63;5046878;28;20033;-59
2023/04/21 05:09:18;;;;;;;3.33;1.33;;;;;;;9.38;88.41;101290.91;5050365;28;20462;-58
2023/04/21 05:11:44;;;;;;;2.05;1.42;;;;;;;9.36;88.99;101292.34;5038163;28;20037;-59
2023/04/21 05:14:09;;;;;;;1.88;1.13;;;;;;;9.47;88.78;101291.63;5030328;28;20483;-57
2023/04/21 05:16:35;;;;;;;2.50;1.98;;;;;;;9.58;88.69;101286.63;5051362;28;20065;-58
2023/04/21 05:19:01;;;;;;;2.90;1.50;;;;;;;9.57;88.41;101277.75;5049801;28;20068;-59
2023/04/21 05:21:27;;;;;;;1.65;1.35;;;;;;;9.59;88.22;101286.28;5049122;28;20491;-59
2023/04/21 05:23:57;;;;;;;4.53;1.67;;;;;;;9.70;88.12;101279.34;5050464;28;20072;-60
2023/04/21 05:26:26;;;;;;;1.23;0.90;;;;;;;9.82;87.97;101279.38;5051620;28;20056;-60
2023/04/21 05:28:53;;;;;;;1.90;1.75;;;;;;;9.86;87.69;101282.97;5050372;28;20033;-59
2023/04/21 05:31:18;;;;;;;1.60;1.00;;;;;;;9.76;87.85;101280.72;5050234;28;20029;-59
2023/04/21 05:33:44;;;;;;;1.40;1.17;;;;;;;9.93;87.65;101285.91;5030402;28;20028;-60
2023/04/21 05:36:10;;;;;;;1.60;1.42;;;;;;;10.08;87.15;101280.97;5049093;28;20124;-61
2023/04/21 05:38:36;;;;;;;4.13;2.47;;;;;;;10.26;86.68;101291.22;5050811;28;20108;-60
2023/04/21 05:41:02;;;;;;;2.17;0.98;;;;;;;10.28;86.28;101280.13;5032208;28;20453;-60
2023/04/21 05:43:27;;;;;;;5.75;1.20;;;;;;;10.35;86.90;101288.44;5043353;28;20380;-60
2023/04/21 05:45:53;;;;;;;1.25;1.08;;;;;;;10.41;86.39;101277.09;5050368;28;20028;-59
2023/04/21 05:48:22;;;;;;;3.30;1.20;;;;;;;10.49;85.67;101280.78;5049770;28;20029;-60
2023/04/21 05:50:47;;;;;;;3.95;1.55;;;;;;;10.60;85.11;101289.97;5024951;28;20281;-58
2023/04/21 05:53:13;;;;;;;9.40;2.65;;;;;;;10.77;85.24;101282.44;5046271;28;20067;-58
2023/04/21 05:55:38;;;;;;;1.45;1.20;;;;;;;10.97;84.61;101288.00;5049800;28;20037;-60
2023/04/21 05:58:04;;;;;;;6.70;1.58;;;;;;;11.02;83.79;101293.91;5050523;28;20039;-59
2023/04/21 06:00:29;;;;;;;2.25;1.25;;;;;;;11.20;83.75;101289.03;5041798;28;20115;-60
2023/04/21 06:02:55;;;;;;;5.15;1.88;;;;;;;11.32;82.86;101283.59;5049019;28;20044;-59
2023/04/21 06:05:20;;;;;;;1.48;1.38;;;;;;;11.42;82.01;101296.59;5034234;28;20157;-56
2023/04/21 06:07:46;;;;;;;2.20;1.25;;;;;;;11.47;81.33;101289.03;5047083;28;20057;-59
2023/04/21 06:10:12;;;;;;;2.08;1.38;;;;;;;11.66;80.36;101288.41;5040947;28;20041;-59
2023/04/21 06:12:38;;;;;;;2.22;1.70;;;;;;;11.67;80.06;101296.13;5047363;28;20044;-58
2023/04/21 06:15:04;;;;;;;3.42;1.55;;;;;;;11.84;79.70;101292.34;5050534;28;20024;-59
2023/04/21 06:17:30;;;;;;;1.67;1.27;;;;;;;11.97;79.08;101290.34;5046658;28;20029;-62
2023/04/21 06:19:55;;;;;;;3.78;1.80;;;;;;;12.00;79.47;101289.66;5052384;28;20039;-60
2023/04/21 06:22:24;;;;;;;1.42;1.27;;;;;;;12.11;78.38;101277.19;5036800;28;20069;-59
2023/04/21 06:24:50;;;;;;;3.38;1.38;;;;;;;12.25;78.03;101285.66;5027044;28;20388;-59
2023/04/21 06:27:16;;;;;;;3.08;1.40;;;;;;;12.32;78.40;101286.59;5041213;28;20141;-60
2023/04/21 06:29:42;;;;;;;2.80;1.60;;;;;;;12.51;77.40;101286.66;5042744;28;20364;-59
2023/04/21 06:32:11;;;;;;;2.55;1.40;;;;;;;12.63;77.01;101281.13;5049005;28;20154;-60
2023/04/21 06:34:37;;;;;;;1.95;1.20;;;;;;;12.77;75.70;101282.56;5042638;28;20041;-59
2023/04/21 06:37:03;;;;;;;1.38;1.25;;;;;;;12.88;75.20;101281.66;5046938;28;20021;-60
2023/04/21 06:39:29;;;;;;;3.78;1.52;;;;;;;13.00;75.08;101283.44;5049584;28;20043;-59
2023/04/21 06:41:56;;;;;;;2.63;1.67;;;;;;;13.18;74.29;101279.97;5040645;28;20454;-58
2023/04/21 06:44:25;;;;;;;2.73;1.47;;;;;;;13.25;73.56;101282.06;5030604;28;20162;-58
2023/04/21 06:46:50;;;;;;;1.65;0.93;;;;;;;13.30;72.75;101270.94;5028984;28;20040;-57
2023/04/21 06:49:16;;;;;;;2.50;1.30;;;;;;;13.34;73.45;101274.50;5050055;28;20029;-58
2023/04/21 06:51:41;;;;;;;2.40;2.00;;;;;;;13.62;72.20;101276.94;5042171;28;20339;-60
2023/04/21 06:54:07;;;;;;;1.77;1.40;;;;;;;13.77;71.42;101273.34;5046738;28;20040;-57
2023/04/21 06:56:33;;;;;;;2.25;0.90;;;;;;;13.93;70.46;101276.72;5049011;28;20048;-60
2023/04/21 06:58:58;;;;;;;1.60;1.08;;;;;;;13.94;69.80;101281.78;5030112;28;20096;-57
2023/04/21 07:01:24;;;;;;;1.10;0.95;;;;;;;14.22;69.73;101278.75;5042592;28;20563;-59
2023/04/21 07:03:50;;;;;;;1.88;1.10;;;;;;;14.35;69.14;101277.41;5047982;28;20039;-58
2023/04/21 07:06:15;;;;;;;1.75;1.05;;;;;;;14.56;67.96;101279.66;5049982;28;20393;-59
2023/04/21 07:08:41;;;;;;;2.00;0.90;;;;;;;14.76;67.95;101279.19;5034972;28;20037;-59
2023/04/21 07:11:08;;;;;;;1.00;0.90;;;;;;;14.87;67.61;101268.47;5044344;28;20107;-58
2023/04/21 07:13:34;;;;;;;1.35;0.80;;;;;;;15.06;66.37;101268.34;5047084;28;20124;-59
2023/04/21 07:15:59;;;;;;;1.58;1.10;;;;;;;15.08;65.10;101274.16;5018259;28;20691;-59
2023/04/21 07:18:25;;;;;;;1.67;1.00;;;;;;;15.37;65.21;101271.38;5014314;28;20136;-59
2023/04/21 07:20:51;;;;;;;2.80;1.50;;;;;;;15.62;64.13;101265.47;5027057;28;20057;-58
2023/04/21 07:23:17;;;;;;;1.20;0.80;;;;;;;15.78;61.93;101264.06;5040190;28;20029;-58
2023/04/21 07:25:42;;;;;;;1.13;0.75;;;;;;;15.82;63.15;101273.03;5038415;28;20520;-58
2023/04/21 07:28:08;;;;;;;1.10;0.80;;;;;;;15.91;63.45;101270.03;5015223;28;20033;-57
2023/04/21 07:30:36;;;;;;;1.73;1.00;;;;;;;16.10;63.01;101262.38;5026942;28;20040;-60
2023/04/21 07:33:02;;;;;;;0.82;0.63;;;;;;;16.20;62.57;101264.41;5045398;28;20033;-58
2023/04/21 07:35:27;;;;;;;3.03;0.98;;;;;;;16.32;61.25;101265.28;5048605;28;20395;-59
2023/04/21 07:37:53;;;;;;;1.20;0.52;;;;;;;16.27;60.31;101259.03;5045140;28;22050;-59
2023/04/21 07:40:18;;;;;;;1.45;1.13;;;;;;;16.61;59.55;101261.59;5036812;28;20025;-59
2023/04/21 07:42:44;;;;;;;1.80;1.30;;;;;;;16.77;59.80;101265.56;5042165;28;20032;-58
2023/04/21 07:45:30;;;;;;;2.08;1.13;;;;;;;16.91;60.54;101257.50;5039515;28;20086;-58
2023/04/21 07:47:55;;;;;;;2.63;0.75;;;;;;;16.98;58.34;101254.00;4990121;28;20054;-57
2023/04/21 07:50:21;;;;;;;1.67;0.75;;;;;;;17.07;58.45;101252.47;5006262;28;20056;-58
2023/04/21 07:52:47;;;;;;;1.48;0.90;;;;;;;17.20;57.44;101254.84;4998106;28;20121;-59
2023/04/21 07:55:13;;;;;;;1.20;0.65;;;;;;;17.37;57.40;101244.00;4996614;28;20041;-56
2023/04/21 07:57:39;;;;;;;1.65;1.23;;;;;;;17.40;57.79;101250.66;4999337;28;20045;-57
2023/04/21 08:00:05;;;;;;;1.45;0.90;;;;;;;17.49;56.39;101251.84;5006222;28;20046;-57
2023/04/21 08:02:37;;;;;;;1.38;0.80;;;;;;;17.77;56.20;101262.00;5021764;22;20056;-69
2023/04/21 08:05:03;;;;;;;1.65;0.80;;;;;;;17.80;56.03;101251.13;5097912;28;20414;-70
2023/04/21 08:07:29;;;;;;;1.45;0.77;;;;;;;17.57;56.89;101244.47;5099571;28;20032;-69
2023/04/21 08:09:55;;;;;;;1.05;0.88;;;;;;;17.91;56.68;101251.88;5100855;28;20016;-71
2023/04/21 08:12:20;;;;;;;1.65;0.98;;;;;;;18.04;55.46;101250.31;5103605;28;20461;-70
2023/04/21 08:14:45;;;;;;;1.02;0.90;;;;;;;18.21;55.23;101246.03;5105841;28;20053;-69
2023/04/21 08:17:11;;;;;;;1.80;1.05;;;;;;;18.42;55.28;101247.94;5106207;28;20958;-72
2023/04/21 08:19:36;;;;;;;1.35;0.77;;;;;;;18.76;53.74;101249.03;5096137;28;20016;-72
2023/04/21 08:22:02;;;;;;;2.45;0.80;;;;;;;18.78;53.77;101254.88;5102667;28;20528;-68
2023/04/21 08:24:27;;;;;;;2.72;1.20;;;;;;;18.86;54.02;101251.75;5105907;28;20039;-68
2023/04/21 08:26:53;;;;;;;2.20;0.80;;;;;;;19.00;53.59;101241.94;5098907;28;20047;-71
2023/04/21 08:29:18;;;;;;;3.05;1.25;;;;;;;19.21;53.90;101239.88;5106619;28;20036;-67
2023/04/21 08:31:43;;;;;;;1.95;1.10;;;;;;;19.38;53.39;101233.56;5101195;28;20140;-69
2023/04/21 08:34:09;;;;;;;1.63;1.23;;;;;;;19.46;53.40;101235.06;5103132;28;20027;-68
2023/04/21 08:36:34;;;;;;;1.90;1.20;;;;;;;19.47;52.08;101235.84;5097520;28;20028;-71
2023/04/21 08:39:00;;;;;;;1.35;0.95;;;;;;;19.66;51.90;101230.63;5104348;28;20032;-68
2023/04/21 08:41:26;;;;;;;1.40;1.05;;;;;;;19.67;50.78;101234.91;5098650;28;20034;-71
2023/04/21 08:43:52;;;;;;;1.73;1.08;;;;;;;19.50;50.76;101229.56;5099122;28;20032;-69
2023/04/21 08:46:17;;;;;;;1.73;1.02;;;;;;;19.74;51.63;101234.84;5092428;28;20039;-68
2023/04/21 08:48:45;;;;;;;1.30;0.75;;;;;;;19.72;50.79;101225.50;5091180;28;20173;-67
2023/04/21 08:51:13;;;;;;;3.33;0.93;;;;;;;20.05;51.59;101229.53;5092439;28;20434;-69
2023/04/21 08:53:40;;;;;;;0.80;0.68;;;;;;;20.17;50.42;101235.25;5094946;28;20015;-68
2023/04/21 08:56:06;;;;;;;2.97;1.50;;;;;;;20.40;51.00;101226.47;5096333;28;20035;-68
2023/04/21 08:58:51;;;;;;;2.78;1.15;;;;;;;20.50;50.17;101225.56;5092035;28;20400;-68
2023/04/21 09:01:17;;;;;;;1.60;0.82;;;;;;;20.59;49.75;101231.34;5061802;28;20087;-68
2023/04/21 09:03:42;;;;;;;2.85;1.33;;;;;;;20.42;48.06;101224.13;5048539;28;20048;-71
2023/04/21 09:06:08;;;;;;;1.98;1.20;;;;;;;20.52;49.18;101234.16;5043726;28;20053;-68
2023/04/21 09:08:40;;;;;;;2.13;1.20;;;;;;;20.79;49.07;101237.75;5052578;28;20381;-68
2023/04/21 09:11:06;;;;;;;2.40;1.30;;;;;;;20.93;48.71;101234.84;5066971;28;20544;-68
2023/04/21 09:13:36;;;;;;;2.08;1.08;;;;;;;21.19;48.84;101227.88;5032832;28;20052;-69
2023/04/21 09:16:13;;;;;;;2.05;1.08;;;;;;;21.26;48.72;101228.56;5035072;28;20060;-68
2023/04/21 09:18:39;;;;;;;3.15;1.50;;;;;;;21.52;48.02;101233.25;5061963;28;20566;-69
2023/04/21 09:21:08;;;;;;;2.20;1.42;;;;;;;21.46;47.34;101232.19;5062339;28;20024;-68
2023/04/21 09:24:04;;;;;;;2.10;1.08;;;;;;;21.40;45.06;101224.84;5049945;28;20040;-68
2023/04/21 09:26:29;;;;;;;1.38;0.95;;;;;;;21.62;46.62;101230.78;5048577;28;20048;-71
2023/04/21 09:28:55;;;;;;;3.03;1.30;;;;;;;21.83;46.12;101222.22;5040249;28;20448;-68
2023/04/21 09:31:27;;;;;;;1.15;1.05;;;;;;;21.93;46.12;101229.50;5063851;28;20060;-67
2023/04/21 09:33:56;;;;;;;1.40;0.95;;;;;;;22.10;45.11;101228.41;5049164;28;20154;-67
2023/04/21 09:36:24;;;;;;;1.50;1.02;;;;;;;22.14;44.39;101231.88;5061413;28;20036;-69
2023/04/21 09:38:53;;;;;;;3.72;1.08;;;;;;;22.08;44.86;101222.56;5090191;28;20039;-69
2023/04/21 09:41:19;;;;;;;1.60;1.08;;;;;;;22.29;45.27;101230.41;5102775;28;20028;-69
2023/04/21 09:43:44;;;;;;;2.83;1.33;;;;;;;22.43;44.86;101227.41;5107332;28;20419;-69
2023/04/21 09:46:11;;;;;;;1.52;0.98;;;;;;;22.68;44.60;101225.00;5100457;28;20124;-71
2023/04/21 09:48:42;;;;;;;2.08;1.23;;;;;;;22.79;44.46;101220.03;5108845;28;20135;-69
2023/04/21 09:51:08;;;;;;;2.23;1.17;;;;;;;22.80;43.19;101224.34;5102263;28;20039;-68
2023/04/21 09:53:36;;;;;;;1.30;1.20;;;;;;;22.86;42.87;101216.38;5097413;28;20472;-68
2023/04/21 09:56:03;;;;;;;2.03;1.42;;;;;;;22.29;42.68;101213.94;5100818;28;20040;-69
2023/04/21 09:58:36;;;;;;;1.88;0.93;;;;;;;22.36;43.53;101211.06;5094831;28;20035;-69
2023/04/21 10:01:03;;;;;;;1.13;0.90;;;;;;;22.48;44.40;101206.91;5111067;28;20024;-69
2023/04/21 10:03:30;;;;;;;1.33;0.93;;;;;;;22.90;44.22;101195.88;5098607;28;20495;-71
2023/04/21 10:05:55;;;;;;;1.60;0.95;;;;;;;22.91;42.44;101207.63;5092914;28;20035;-68
2023/04/21 10:08:21;;;;;;;1.92;0.88;;;;;;;22.99;43.17;101203.53;5105660;28;20035;-68
2023/04/21 10:10:47;;;;;;;1.65;1.13;;;;;;;23.03;43.28;101193.25;5101792;28;20281;-68
2023/04/21 10:13:15;;;;;;;1.92;1.17;;;;;;;23.10;42.40;101198.56;5108365;28;20456;-68
2023/04/21 10:15:41;;;;;;;2.80;1.00;;;;;;;23.21;43.75;101199.88;5100925;28;20513;-68
2023/04/21 10:18:20;;;;;;;4.38;1.42;;;;;;;23.48;42.64;101190.66;5100137;28;20047;-68
2023/04/21 10:20:55;;;;;;;2.45;1.20;;;;;;;23.59;42.39;101191.19;5093333;28;20038;-70
2023/04/21 10:23:36;;;;;;;3.35;0.95;;;;;;;23.78;43.16;101193.06;5101938;28;20118;-67
2023/04/21 10:26:12;;;;;;;;;;;;;;;23.79;41.94;101181.59;5095882;28;20119;-69
2023/04/21 10:28:58;;;;;;;0.63;0.63;;;;;;;23.45;41.37;101189.53;5099253;28;20381;-69
2023/04/21 10:31:34;;;;;;;1.40;1.02;;;;;;;23.60;41.55;101181.72;5101253;28;20077;-68
2023/04/21 10:34:06;;;;;;;1.33;0.90;;;;;;;23.71;42.84;101176.72;5100702;28;20067;-69
2023/04/21 10:36:45;;;;;;;2.05;1.30;;;;;;;23.39;41.83;101177.50;5110883;28;20063;-68
2023/04/21 10:39:25;;;;;;;2.85;0.90;;;;;;;23.89;42.20;101169.56;5103983;28;20044;-68
2023/04/21 10:41:53;;;;;;;1.75;1.02;;;;;;;24.17;40.66;101171.59;5091828;28;20122;-73
2023/04/21 10:44:20;;;;;;;2.08;1.27;;;;;;;24.45;38.78;101175.53;5108264;28;20030;-68
2023/04/21 10:46:51;;;;;;;2.25;1.40;;;;;;;24.29;39.01;101167.34;5091507;28;20090;-69
2023/04/21 10:49:30;;;;;;;2.25;1.35;;;;;;;24.51;39.10;101151.75;5099684;28;20043;-70
2023/04/21 10:51:58;;;;;;;3.05;1.25;;;;;;;24.83;38.87;101151.63;5095800;28;20361;-68
2023/04/21 10:54:24;;;;;;;1.75;1.30;;;;;;;24.68;38.95;101150.44;5093058;28;20115;-69
2023/04/21 10:56:52;;;;;;;1.90;1.30;;;;;;;24.70;39.00;101141.75;5102137;28;20031;-69
2023/04/21 10:59:18;;;;;;;1.58;1.30;;;;;;;24.88;39.04;101144.75;5091196;28;20071;-68
2023/04/21 11:01:44;;;;;;;2.20;1.10;;;;;;;24.73;38.54;101143.66;5089380;28;20031;-68
2023/04/21 11:04:16;;;;;;;2.45;1.38;;;;;;;24.78;38.30;101140.34;5098141;28;20028;-68
2023/04/21 11:06:42;;;;;;;3.72;1.23;;;;;;;24.86;38.43;101136.94;5090489;28;20032;-68
2023/04/21 11:09:10;;;;;;;1.55;1.20;;;;;;;24.81;37.69;101134.75;5091331;28;20031;-68
2023/04/21 11:11:36;;;;;;;1.30;1.00;;;;;;;24.73;38.63;101138.16;5101850;28;20028;-68
2023/04/21 11:14:02;;;;;;;2.00;1.55;;;;;;;24.93;38.00;101139.47;5102930;28;20031;-73
2023/04/21 11:16:28;;;;;;;3.05;1.48;;;;;;;24.75;37.23;101122.72;5100035;28;20047;-69
2023/04/21 11:18:55;;;;;;;2.42;1.20;;;;;;;24.86;37.59;101122.38;5095482;28;20035;-69
2023/04/21 11:21:21;;;;;;;2.25;1.20;;;;;;;24.57;39.30;101114.19;5095847;28;20047;-68
2023/04/21 11:23:54;;;;;;;2.75;1.02;;;;;;;24.84;39.23;101113.78;5096604;28;20031;-72
2023/04/21 11:26:33;;;;;;;7.72;2.85;;;;;;;24.96;37.97;101116.56;5106410;28;20043;-69
2023/04/21 11:29:04;;;;;;;1.90;1.17;;;;;;;24.93;37.83;101117.41;5090601;28;20028;-72
2023/04/21 11:31:31;;;;;;;1.25;1.02;;;;;;;25.12;37.13;101110.16;5074787;28;20111;-70